sensor_id;sensor_type;location;lat;lon;timestamp;P1;durP1;ratioP1;P2;durP2;ratioP2
9968;SDS011;5025;48.890;9.278;2024-03-08T00:02:24;13.80;;;12.20;;
9968;SDS011;5025;48.890;9.278;2024-03-08T00:04:49;14.27;;;11.80;;
9968;SDS011;5025;48.890;9.278;2024-03-08T00:07:14;13.83;;;12.30;;
9968;SDS011;5025;48.890;9.278;2024-03-08T00:09:39;13.63;;;12.23;;
9968;SDS011;5025;48.890;9.278;2024-03-08T00:12:05;13.47;;;11.87;;
9968;SDS011;5025;48.890;9.278;2024-03-08T00:14:31;13.07;;;11.73;;
9968;SDS011;5025;48.890;9.278;2024-03-08T00:16:56;14.53;;;11.80;;
9968;SDS011;5025;48.890;9.278;2024-03-08T00:19:21;13.77;;;12.37;;
9968;SDS011;5025;48.890;9.278;2024-03-08T00:21:47;14.17;;;12.57;;
9968;SDS011;5025;48.890;9.278;2024-03-08T00:24:12;13.37;;;11.97;;
9968;SDS011;5025;48.890;9.278;2024-03-08T00:26:37;12.93;;;11.57;;
9968;SDS011;5025;48.890;9.278;2024-03-08T00:29:02;13.03;;;11.63;;
9968;SDS011;5025;48.890;9.278;2024-03-08T00:31:28;13.40;;;12.00;;
9968;SDS011;5025;48.890;9.278;2024-03-08T00:33:55;13.50;;;12.10;;
9968;SDS011;5025;48.890;9.278;2024-03-08T00:36:21;12.47;;;11.17;;
9968;SDS011;5025;48.890;9.278;2024-03-08T00:38:47;13.27;;;11.97;;
9968;SDS011;5025;48.890;9.278;2024-03-08T00:41:12;13.10;;;11.70;;
9968;SDS011;5025;48.890;9.278;2024-03-08T00:43:37;13.73;;;12.07;;
9968;SDS011;5025;48.890;9.278;2024-03-08T00:46:03;12.90;;;11.60;;
9968;SDS011;5025;48.890;9.278;2024-03-08T00:48:28;14.90;;;11.80;;
9968;SDS011;5025;48.890;9.278;2024-03-08T00:50:53;13.33;;;11.93;;
9968;SDS011;5025;48.890;9.278;2024-03-08T00:53:19;13.37;;;11.97;;
9968;SDS011;5025;48.890;9.278;2024-03-08T00:55:44;13.60;;;12.20;;
9968;SDS011;5025;48.890;9.278;2024-03-08T00:58:11;12.60;;;11.30;;
9968;SDS011;5025;48.890;9.278;2024-03-08T01:00:36;13.70;;;12.20;;
9968;SDS011;5025;48.890;9.278;2024-03-08T01:03:03;14.33;;;12.37;;
9968;SDS011;5025;48.890;9.278;2024-03-08T01:05:29;14.37;;;12.47;;
9968;SDS011;5025;48.890;9.278;2024-03-08T01:07:55;13.57;;;11.87;;
9968;SDS011;5025;48.890;9.278;2024-03-08T01:10:20;12.20;;;10.90;;
9968;SDS011;5025;48.890;9.278;2024-03-08T01:12:45;13.03;;;11.67;;
9968;SDS011;5025;48.890;9.278;2024-03-08T01:15:11;13.10;;;11.70;;
9968;SDS011;5025;48.890;9.278;2024-03-08T01:17:36;12.47;;;11.10;;
9968;SDS011;5025;48.890;9.278;2024-03-08T01:20:02;13.73;;;12.33;;
9968;SDS011;5025;48.890;9.278;2024-03-08T01:22:28;15.03;;;12.50;;
9968;SDS011;5025;48.890;9.278;2024-03-08T01:24:55;14.20;;;12.67;;
9968;SDS011;5025;48.890;9.278;2024-03-08T01:27:20;13.23;;;11.90;;
9968;SDS011;5025;48.890;9.278;2024-03-08T01:29:46;13.10;;;11.80;;
9968;SDS011;5025;48.890;9.278;2024-03-08T01:32:11;12.67;;;11.47;;
9968;SDS011;5025;48.890;9.278;2024-03-08T01:34:37;13.00;;;11.63;;
9968;SDS011;5025;48.890;9.278;2024-03-08T01:37:02;13.87;;;12.13;;
9968;SDS011;5025;48.890;9.278;2024-03-08T01:39:27;13.50;;;12.10;;
9968;SDS011;5025;48.890;9.278;2024-03-08T01:41:53;13.33;;;11.93;;
9968;SDS011;5025;48.890;9.278;2024-03-08T01:44:19;13.27;;;11.30;;
9968;SDS011;5025;48.890;9.278;2024-03-08T01:46:44;13.07;;;11.60;;
9968;SDS011;5025;48.890;9.278;2024-03-08T01:49:10;12.73;;;11.43;;
9968;SDS011;5025;48.890;9.278;2024-03-08T01:51:36;13.23;;;11.63;;
9968;SDS011;5025;48.890;9.278;2024-03-08T01:54:03;13.03;;;11.73;;
9968;SDS011;5025;48.890;9.278;2024-03-08T01:56:29;13.77;;;12.27;;
9968;SDS011;5025;48.890;9.278;2024-03-08T01:58:56;13.70;;;12.27;;
9968;SDS011;5025;48.890;9.278;2024-03-08T02:01:22;14.80;;;12.47;;
9968;SDS011;5025;48.890;9.278;2024-03-08T02:03:49;13.73;;;12.13;;
9968;SDS011;5025;48.890;9.278;2024-03-08T02:06:14;13.20;;;11.73;;
9968;SDS011;5025;48.890;9.278;2024-03-08T02:08:44;13.27;;;11.87;;
9968;SDS011;5025;48.890;9.278;2024-03-08T02:11:10;14.30;;;11.97;;
9968;SDS011;5025;48.890;9.278;2024-03-08T02:13:35;12.23;;;10.93;;
9968;SDS011;5025;48.890;9.278;2024-03-08T02:16:01;13.73;;;11.07;;
9968;SDS011;5025;48.890;9.278;2024-03-08T02:18:26;12.50;;;11.20;;
9968;SDS011;5025;48.890;9.278;2024-03-08T02:20:56;12.80;;;11.50;;
9968;SDS011;5025;48.890;9.278;2024-03-08T02:23:23;12.93;;;11.30;;
9968;SDS011;5025;48.890;9.278;2024-03-08T02:25:52;12.93;;;11.13;;
9968;SDS011;5025;48.890;9.278;2024-03-08T02:28:19;13.23;;;11.83;;
9968;SDS011;5025;48.890;9.278;2024-03-08T02:30:45;12.40;;;11.10;;
9968;SDS011;5025;48.890;9.278;2024-03-08T02:33:14;14.23;;;12.00;;
9968;SDS011;5025;48.890;9.278;2024-03-08T02:35:42;12.30;;;11.10;;
9968;SDS011;5025;48.890;9.278;2024-03-08T02:38:11;12.50;;;11.07;;
9968;SDS011;5025;48.890;9.278;2024-03-08T02:40:36;12.40;;;11.13;;
9968;SDS011;5025;48.890;9.278;2024-03-08T02:43:02;12.20;;;11.00;;
9968;SDS011;5025;48.890;9.278;2024-03-08T02:45:27;12.97;;;11.50;;
9968;SDS011;5025;48.890;9.278;2024-03-08T02:47:52;12.27;;;10.97;;
9968;SDS011;5025;48.890;9.278;2024-03-08T02:50:18;13.00;;;11.40;;
9968;SDS011;5025;48.890;9.278;2024-03-08T02:52:43;11.73;;;10.53;;
9968;SDS011;5025;48.890;9.278;2024-03-08T02:55:08;12.60;;;11.30;;
9968;SDS011;5025;48.890;9.278;2024-03-08T02:57:35;11.83;;;10.60;;
9968;SDS011;5025;48.890;9.278;2024-03-08T03:00:01;13.17;;;11.43;;
9968;SDS011;5025;48.890;9.278;2024-03-08T03:02:26;12.37;;;10.70;;
9968;SDS011;5025;48.890;9.278;2024-03-08T03:04:52;11.77;;;10.57;;
9968;SDS011;5025;48.890;9.278;2024-03-08T03:07:17;12.23;;;10.93;;
9968;SDS011;5025;48.890;9.278;2024-03-08T03:09:42;12.07;;;10.77;;
9968;SDS011;5025;48.890;9.278;2024-03-08T03:12:08;12.60;;;10.97;;
9968;SDS011;5025;48.890;9.278;2024-03-08T03:14:34;12.13;;;10.77;;
9968;SDS011;5025;48.890;9.278;2024-03-08T03:17:00;11.37;;;10.17;;
9968;SDS011;5025;48.890;9.278;2024-03-08T03:19:27;12.30;;;10.83;;
9968;SDS011;5025;48.890;9.278;2024-03-08T03:21:54;12.27;;;11.03;;
9968;SDS011;5025;48.890;9.278;2024-03-08T03:24:19;11.80;;;10.40;;
9968;SDS011;5025;48.890;9.278;2024-03-08T03:26:46;12.50;;;11.20;;
9968;SDS011;5025;48.890;9.278;2024-03-08T03:29:13;12.87;;;10.93;;
9968;SDS011;5025;48.890;9.278;2024-03-08T03:31:40;12.17;;;10.87;;
9968;SDS011;5025;48.890;9.278;2024-03-08T03:34:05;11.47;;;10.27;;
9968;SDS011;5025;48.890;9.278;2024-03-08T03:36:33;11.67;;;10.47;;
9968;SDS011;5025;48.890;9.278;2024-03-08T03:39:00;12.73;;;10.63;;
9968;SDS011;5025;48.890;9.278;2024-03-08T03:41:37;13.57;;;11.80;;
9968;SDS011;5025;48.890;9.278;2024-03-08T03:44:03;12.17;;;10.80;;
9968;SDS011;5025;48.890;9.278;2024-03-08T03:46:30;12.00;;;10.70;;
9968;SDS011;5025;48.890;9.278;2024-03-08T03:48:55;11.93;;;10.47;;
9968;SDS011;5025;48.890;9.278;2024-03-08T03:51:21;13.20;;;11.80;;
9968;SDS011;5025;48.890;9.278;2024-03-08T03:53:46;12.27;;;10.97;;
9968;SDS011;5025;48.890;9.278;2024-03-08T03:56:11;11.93;;;10.70;;
9968;SDS011;5025;48.890;9.278;2024-03-08T03:58:37;13.47;;;12.03;;
9968;SDS011;5025;48.890;9.278;2024-03-08T04:01:04;13.67;;;11.93;;
9968;SDS011;5025;48.890;9.278;2024-03-08T04:03:29;13.97;;;12.47;;
9968;SDS011;5025;48.890;9.278;2024-03-08T04:05:55;14.03;;;12.43;;
9968;SDS011;5025;48.890;9.278;2024-03-08T04:08:20;13.57;;;12.17;;
9968;SDS011;5025;48.890;9.278;2024-03-08T04:10:45;12.97;;;11.67;;
9968;SDS011;5025;48.890;9.278;2024-03-08T04:13:11;14.43;;;12.37;;
9968;SDS011;5025;48.890;9.278;2024-03-08T04:15:36;13.13;;;11.47;;
9968;SDS011;5025;48.890;9.278;2024-03-08T04:18:02;12.97;;;11.57;;
9968;SDS011;5025;48.890;9.278;2024-03-08T04:20:28;12.27;;;10.73;;
9968;SDS011;5025;48.890;9.278;2024-03-08T04:22:53;12.20;;;10.87;;
9968;SDS011;5025;48.890;9.278;2024-03-08T04:25:19;14.63;;;12.23;;
9968;SDS011;5025;48.890;9.278;2024-03-08T04:27:45;13.87;;;11.73;;
9968;SDS011;5025;48.890;9.278;2024-03-08T04:30:12;13.73;;;11.97;;
9968;SDS011;5025;48.890;9.278;2024-03-08T04:32:37;14.17;;;12.20;;
9968;SDS011;5025;48.890;9.278;2024-03-08T04:35:02;14.23;;;11.90;;
9968;SDS011;5025;48.890;9.278;2024-03-08T04:37:28;13.80;;;11.70;;
9968;SDS011;5025;48.890;9.278;2024-03-08T04:39:56;12.47;;;11.27;;
9968;SDS011;5025;48.890;9.278;2024-03-08T04:42:22;12.63;;;11.33;;
9968;SDS011;5025;48.890;9.278;2024-03-08T04:44:47;13.37;;;11.27;;
9968;SDS011;5025;48.890;9.278;2024-03-08T04:47:13;20.00;;;16.63;;
9968;SDS011;5025;48.890;9.278;2024-03-08T04:49:38;22.07;;;18.00;;
9968;SDS011;5025;48.890;9.278;2024-03-08T04:52:04;20.97;;;17.90;;
9968;SDS011;5025;48.890;9.278;2024-03-08T04:54:30;19.57;;;16.73;;
9968;SDS011;5025;48.890;9.278;2024-03-08T04:56:55;18.00;;;15.60;;
9968;SDS011;5025;48.890;9.278;2024-03-08T04:59:21;17.07;;;14.93;;
9968;SDS011;5025;48.890;9.278;2024-03-08T05:01:46;15.33;;;13.33;;
9968;SDS011;5025;48.890;9.278;2024-03-08T05:04:12;16.00;;;13.70;;
9968;SDS011;5025;48.890;9.278;2024-03-08T05:06:38;13.97;;;12.47;;
9968;SDS011;5025;48.890;9.278;2024-03-08T05:09:03;14.43;;;12.90;;
9968;SDS011;5025;48.890;9.278;2024-03-08T05:11:45;15.00;;;13.23;;
9968;SDS011;5025;48.890;9.278;2024-03-08T05:14:11;14.57;;;12.97;;
9968;SDS011;5025;48.890;9.278;2024-03-08T05:16:41;15.03;;;13.27;;
9968;SDS011;5025;48.890;9.278;2024-03-08T05:19:07;14.00;;;12.50;;
9968;SDS011;5025;48.890;9.278;2024-03-08T05:21:32;14.37;;;12.63;;
9968;SDS011;5025;48.890;9.278;2024-03-08T05:23:58;15.03;;;13.10;;
9968;SDS011;5025;48.890;9.278;2024-03-08T05:26:23;15.23;;;12.17;;
9968;SDS011;5025;48.890;9.278;2024-03-08T05:28:48;14.40;;;12.47;;
9968;SDS011;5025;48.890;9.278;2024-03-08T05:31:23;16.00;;;12.97;;
9968;SDS011;5025;48.890;9.278;2024-03-08T05:33:48;14.80;;;13.07;;
9968;SDS011;5025;48.890;9.278;2024-03-08T05:36:14;13.23;;;11.70;;
9968;SDS011;5025;48.890;9.278;2024-03-08T05:38:41;15.87;;;12.70;;
9968;SDS011;5025;48.890;9.278;2024-03-08T05:41:08;15.77;;;13.27;;
9968;SDS011;5025;48.890;9.278;2024-03-08T05:43:34;17.17;;;14.13;;
9968;SDS011;5025;48.890;9.278;2024-03-08T05:45:59;17.90;;;14.23;;
9968;SDS011;5025;48.890;9.278;2024-03-08T05:48:24;17.43;;;14.93;;
9968;SDS011;5025;48.890;9.278;2024-03-08T05:50:50;18.93;;;15.03;;
9968;SDS011;5025;48.890;9.278;2024-03-08T05:53:15;21.60;;;16.33;;
9968;SDS011;5025;48.890;9.278;2024-03-08T05:55:40;17.37;;;14.20;;
9968;SDS011;5025;48.890;9.278;2024-03-08T05:58:05;16.63;;;13.97;;
9968;SDS011;5025;48.890;9.278;2024-03-08T06:00:32;17.27;;;13.67;;
9968;SDS011;5025;48.890;9.278;2024-03-08T06:02:58;14.93;;;12.83;;
9968;SDS011;5025;48.890;9.278;2024-03-08T06:05:23;16.40;;;13.23;;
9968;SDS011;5025;48.890;9.278;2024-03-08T06:07:49;15.93;;;13.17;;
9968;SDS011;5025;48.890;9.278;2024-03-08T06:10:18;15.00;;;12.70;;
9968;SDS011;5025;48.890;9.278;2024-03-08T06:12:43;14.80;;;13.20;;
9968;SDS011;5025;48.890;9.278;2024-03-08T06:15:10;12.90;;;11.53;;
9968;SDS011;5025;48.890;9.278;2024-03-08T06:17:39;13.60;;;11.93;;
9968;SDS011;5025;48.890;9.278;2024-03-08T06:20:04;14.43;;;12.40;;
9968;SDS011;5025;48.890;9.278;2024-03-08T06:22:35;12.40;;;11.10;;
9968;SDS011;5025;48.890;9.278;2024-03-08T06:25:01;13.07;;;11.47;;
9968;SDS011;5025;48.890;9.278;2024-03-08T06:27:26;14.87;;;12.00;;
9968;SDS011;5025;48.890;9.278;2024-03-08T06:29:51;15.93;;;13.00;;
9968;SDS011;5025;48.890;9.278;2024-03-08T06:32:17;17.10;;;13.57;;
9968;SDS011;5025;48.890;9.278;2024-03-08T06:34:43;15.30;;;12.77;;
9968;SDS011;5025;48.890;9.278;2024-03-08T06:37:09;15.60;;;12.93;;
9968;SDS011;5025;48.890;9.278;2024-03-08T06:39:34;14.90;;;12.70;;
9968;SDS011;5025;48.890;9.278;2024-03-08T06:42:00;15.40;;;12.43;;
9968;SDS011;5025;48.890;9.278;2024-03-08T06:44:26;14.23;;;11.97;;
9968;SDS011;5025;48.890;9.278;2024-03-08T06:46:52;15.13;;;11.80;;
9968;SDS011;5025;48.890;9.278;2024-03-08T06:49:17;13.97;;;12.03;;
9968;SDS011;5025;48.890;9.278;2024-03-08T06:51:42;14.40;;;11.23;;
9968;SDS011;5025;48.890;9.278;2024-03-08T06:54:07;14.47;;;12.57;;
9968;SDS011;5025;48.890;9.278;2024-03-08T06:56:37;14.53;;;11.60;;
9968;SDS011;5025;48.890;9.278;2024-03-08T06:59:02;13.20;;;11.27;;
9968;SDS011;5025;48.890;9.278;2024-03-08T07:01:28;12.83;;;11.40;;
9968;SDS011;5025;48.890;9.278;2024-03-08T07:03:56;13.27;;;11.53;;
9968;SDS011;5025;48.890;9.278;2024-03-08T07:06:22;12.90;;;11.03;;
9968;SDS011;5025;48.890;9.278;2024-03-08T07:08:47;13.50;;;12.10;;
9968;SDS011;5025;48.890;9.278;2024-03-08T07:11:13;14.17;;;12.70;;
9968;SDS011;5025;48.890;9.278;2024-03-08T07:13:43;13.80;;;11.93;;
9968;SDS011;5025;48.890;9.278;2024-03-08T07:16:08;14.70;;;13.10;;
9968;SDS011;5025;48.890;9.278;2024-03-08T07:18:33;15.77;;;13.63;;
9968;SDS011;5025;48.890;9.278;2024-03-08T07:20:59;16.83;;;13.40;;
9968;SDS011;5025;48.890;9.278;2024-03-08T07:23:26;16.00;;;13.17;;
9968;SDS011;5025;48.890;9.278;2024-03-08T07:26:10;15.47;;;13.30;;
9968;SDS011;5025;48.890;9.278;2024-03-08T07:28:35;17.73;;;13.43;;
9968;SDS011;5025;48.890;9.278;2024-03-08T07:31:01;15.63;;;13.90;;
9968;SDS011;5025;48.890;9.278;2024-03-08T07:33:45;15.67;;;13.97;;
9968;SDS011;5025;48.890;9.278;2024-03-08T07:36:10;15.87;;;13.83;;
9968;SDS011;5025;48.890;9.278;2024-03-08T07:38:35;16.10;;;14.20;;
9968;SDS011;5025;48.890;9.278;2024-03-08T07:41:01;16.17;;;13.67;;
9968;SDS011;5025;48.890;9.278;2024-03-08T07:43:26;15.93;;;13.93;;
9968;SDS011;5025;48.890;9.278;2024-03-08T07:45:52;17.77;;;14.90;;
9968;SDS011;5025;48.890;9.278;2024-03-08T07:48:20;18.03;;;14.70;;
9968;SDS011;5025;48.890;9.278;2024-03-08T07:50:46;17.43;;;14.87;;
9968;SDS011;5025;48.890;9.278;2024-03-08T07:53:11;17.93;;;15.30;;
9968;SDS011;5025;48.890;9.278;2024-03-08T07:55:36;16.67;;;14.37;;
9968;SDS011;5025;48.890;9.278;2024-03-08T07:58:02;17.13;;;14.47;;
9968;SDS011;5025;48.890;9.278;2024-03-08T08:00:28;19.00;;;15.20;;
9968;SDS011;5025;48.890;9.278;2024-03-08T08:02:55;16.57;;;14.73;;
9968;SDS011;5025;48.890;9.278;2024-03-08T08:05:20;16.10;;;14.40;;
9968;SDS011;5025;48.890;9.278;2024-03-08T08:07:46;15.87;;;14.07;;
9968;SDS011;5025;48.890;9.278;2024-03-08T08:10:14;16.37;;;14.30;;
9968;SDS011;5025;48.890;9.278;2024-03-08T08:12:43;17.10;;;14.63;;
9968;SDS011;5025;48.890;9.278;2024-03-08T08:15:09;20.03;;;16.37;;
9968;SDS011;5025;48.890;9.278;2024-03-08T08:17:34;18.03;;;16.13;;
9968;SDS011;5025;48.890;9.278;2024-03-08T08:20:00;17.13;;;15.33;;
9968;SDS011;5025;48.890;9.278;2024-03-08T08:22:25;17.03;;;14.67;;
9968;SDS011;5025;48.890;9.278;2024-03-08T08:24:50;17.03;;;14.60;;
9968;SDS011;5025;48.890;9.278;2024-03-08T08:27:17;17.53;;;15.40;;
9968;SDS011;5025;48.890;9.278;2024-03-08T08:29:42;17.10;;;15.17;;
9968;SDS011;5025;48.890;9.278;2024-03-08T08:32:08;17.37;;;15.10;;
9968;SDS011;5025;48.890;9.278;2024-03-08T08:34:33;17.07;;;14.87;;
9968;SDS011;5025;48.890;9.278;2024-03-08T08:36:58;18.70;;;16.70;;
9968;SDS011;5025;48.890;9.278;2024-03-08T08:39:24;18.93;;;16.77;;
9968;SDS011;5025;48.890;9.278;2024-03-08T08:41:50;17.13;;;15.27;;
9968;SDS011;5025;48.890;9.278;2024-03-08T08:44:16;18.90;;;16.07;;
9968;SDS011;5025;48.890;9.278;2024-03-08T08:46:41;16.03;;;14.33;;
9968;SDS011;5025;48.890;9.278;2024-03-08T08:49:07;17.83;;;15.20;;
9968;SDS011;5025;48.890;9.278;2024-03-08T08:51:35;16.40;;;14.30;;
9968;SDS011;5025;48.890;9.278;2024-03-08T08:54:04;17.73;;;15.77;;
9968;SDS011;5025;48.890;9.278;2024-03-08T08:56:31;19.53;;;15.60;;
9968;SDS011;5025;48.890;9.278;2024-03-08T08:58:56;17.77;;;15.10;;
9968;SDS011;5025;48.890;9.278;2024-03-08T09:01:22;17.50;;;15.10;;
9968;SDS011;5025;48.890;9.278;2024-03-08T09:03:48;16.83;;;14.73;;
9968;SDS011;5025;48.890;9.278;2024-03-08T09:06:14;17.13;;;14.10;;
9968;SDS011;5025;48.890;9.278;2024-03-08T09:08:40;16.63;;;14.67;;
9968;SDS011;5025;48.890;9.278;2024-03-08T09:11:06;18.20;;;15.67;;
9968;SDS011;5025;48.890;9.278;2024-03-08T09:13:31;18.77;;;15.77;;
9968;SDS011;5025;48.890;9.278;2024-03-08T09:15:58;16.50;;;14.73;;
9968;SDS011;5025;48.890;9.278;2024-03-08T09:18:23;16.87;;;14.20;;
9968;SDS011;5025;48.890;9.278;2024-03-08T09:20:49;18.60;;;15.97;;
9968;SDS011;5025;48.890;9.278;2024-03-08T09:23:14;17.00;;;15.20;;
9968;SDS011;5025;48.890;9.278;2024-03-08T09:25:41;15.90;;;13.77;;
9968;SDS011;5025;48.890;9.278;2024-03-08T09:28:07;16.83;;;15.03;;
9968;SDS011;5025;48.890;9.278;2024-03-08T09:30:32;17.47;;;15.20;;
9968;SDS011;5025;48.890;9.278;2024-03-08T09:32:59;17.07;;;14.30;;
9968;SDS011;5025;48.890;9.278;2024-03-08T09:35:24;17.00;;;15.17;;
9968;SDS011;5025;48.890;9.278;2024-03-08T09:37:49;17.87;;;14.63;;
9968;SDS011;5025;48.890;9.278;2024-03-08T09:40:16;17.73;;;15.37;;
9968;SDS011;5025;48.890;9.278;2024-03-08T09:42:44;17.60;;;14.57;;
9968;SDS011;5025;48.890;9.278;2024-03-08T09:45:10;18.67;;;15.77;;
9968;SDS011;5025;48.890;9.278;2024-03-08T09:47:38;18.53;;;14.47;;
9968;SDS011;5025;48.890;9.278;2024-03-08T09:50:05;16.57;;;14.50;;
9968;SDS011;5025;48.890;9.278;2024-03-08T09:52:35;16.93;;;14.90;;
9968;SDS011;5025;48.890;9.278;2024-03-08T09:55:02;19.67;;;15.37;;
9968;SDS011;5025;48.890;9.278;2024-03-08T09:57:30;20.23;;;15.47;;
9968;SDS011;5025;48.890;9.278;2024-03-08T09:59:55;18.00;;;15.87;;
9968;SDS011;5025;48.890;9.278;2024-03-08T10:02:21;17.97;;;15.53;;
9968;SDS011;5025;48.890;9.278;2024-03-08T10:04:46;19.87;;;15.53;;
9968;SDS011;5025;48.890;9.278;2024-03-08T10:07:11;19.63;;;16.10;;
9968;SDS011;5025;48.890;9.278;2024-03-08T10:09:37;18.47;;;15.90;;
9968;SDS011;5025;48.890;9.278;2024-03-08T10:12:04;18.23;;;15.93;;
9968;SDS011;5025;48.890;9.278;2024-03-08T10:14:30;19.33;;;15.67;;
9968;SDS011;5025;48.890;9.278;2024-03-08T10:16:56;18.70;;;16.27;;
9968;SDS011;5025;48.890;9.278;2024-03-08T10:19:24;19.70;;;16.00;;
9968;SDS011;5025;48.890;9.278;2024-03-08T10:21:51;18.67;;;15.73;;
9968;SDS011;5025;48.890;9.278;2024-03-08T10:24:21;16.90;;;14.53;;
9968;SDS011;5025;48.890;9.278;2024-03-08T10:26:50;18.07;;;15.07;;
9968;SDS011;5025;48.890;9.278;2024-03-08T10:29:16;19.67;;;16.20;;
9968;SDS011;5025;48.890;9.278;2024-03-08T10:31:43;19.77;;;16.07;;
9968;SDS011;5025;48.890;9.278;2024-03-08T10:34:11;20.50;;;17.27;;
9968;SDS011;5025;48.890;9.278;2024-03-08T10:36:37;23.10;;;17.40;;
9968;SDS011;5025;48.890;9.278;2024-03-08T10:39:07;20.80;;;16.67;;
9968;SDS011;5025;48.890;9.278;2024-03-08T10:41:44;18.27;;;15.60;;
9968;SDS011;5025;48.890;9.278;2024-03-08T10:44:26;17.93;;;15.80;;
9968;SDS011;5025;48.890;9.278;2024-03-08T10:49:46;17.53;;;15.07;;
9968;SDS011;5025;48.890;9.278;2024-03-08T10:52:16;18.13;;;15.13;;
9968;SDS011;5025;48.890;9.278;2024-03-08T10:54:42;18.67;;;15.10;;
9968;SDS011;5025;48.890;9.278;2024-03-08T10:57:08;18.63;;;15.33;;
9968;SDS011;5025;48.890;9.278;2024-03-08T10:59:36;17.13;;;14.90;;
9968;SDS011;5025;48.890;9.278;2024-03-08T11:02:02;17.80;;;14.77;;
9968;SDS011;5025;48.890;9.278;2024-03-08T11:04:30;19.40;;;15.10;;
9968;SDS011;5025;48.890;9.278;2024-03-08T11:07:01;17.13;;;14.30;;
9968;SDS011;5025;48.890;9.278;2024-03-08T11:09:31;17.27;;;14.90;;
9968;SDS011;5025;48.890;9.278;2024-03-08T11:12:18;16.57;;;14.00;;
9968;SDS011;5025;48.890;9.278;2024-03-08T11:15:00;17.47;;;15.10;;
9968;SDS011;5025;48.890;9.278;2024-03-08T11:20:08;18.67;;;14.97;;
9968;SDS011;5025;48.890;9.278;2024-03-08T11:22:40;18.27;;;15.27;;
9968;SDS011;5025;48.890;9.278;2024-03-08T11:25:08;15.87;;;13.67;;
9968;SDS011;5025;48.890;9.278;2024-03-08T11:27:35;16.30;;;14.07;;
9968;SDS011;5025;48.890;9.278;2024-03-08T11:30:02;17.57;;;14.73;;
9968;SDS011;5025;48.890;9.278;2024-03-08T11:32:37;17.97;;;15.20;;
9968;SDS011;5025;48.890;9.278;2024-03-08T11:35:06;17.97;;;15.47;;
9968;SDS011;5025;48.890;9.278;2024-03-08T11:37:34;18.07;;;14.80;;
9968;SDS011;5025;48.890;9.278;2024-03-08T11:40:00;17.07;;;14.37;;
9968;SDS011;5025;48.890;9.278;2024-03-08T11:42:29;17.43;;;15.27;;
9968;SDS011;5025;48.890;9.278;2024-03-08T11:44:55;19.70;;;15.73;;
9968;SDS011;5025;48.890;9.278;2024-03-08T11:47:21;19.17;;;16.00;;
9968;SDS011;5025;48.890;9.278;2024-03-08T11:49:46;17.60;;;14.77;;
9968;SDS011;5025;48.890;9.278;2024-03-08T11:52:15;17.60;;;15.13;;
9968;SDS011;5025;48.890;9.278;2024-03-08T11:54:42;19.23;;;15.80;;
9968;SDS011;5025;48.890;9.278;2024-03-08T11:57:12;17.00;;;14.53;;
9968;SDS011;5025;48.890;9.278;2024-03-08T11:59:38;19.43;;;15.77;;
9968;SDS011;5025;48.890;9.278;2024-03-08T12:02:04;16.67;;;14.33;;
9968;SDS011;5025;48.890;9.278;2024-03-08T12:04:30;16.37;;;14.17;;
9968;SDS011;5025;48.890;9.278;2024-03-08T12:06:59;15.43;;;13.47;;
9968;SDS011;5025;48.890;9.278;2024-03-08T12:09:27;16.80;;;14.93;;
9968;SDS011;5025;48.890;9.278;2024-03-08T12:11:52;17.37;;;14.97;;
9968;SDS011;5025;48.890;9.278;2024-03-08T12:14:17;16.47;;;14.50;;
9968;SDS011;5025;48.890;9.278;2024-03-08T12:16:43;17.00;;;14.20;;
9968;SDS011;5025;48.890;9.278;2024-03-08T12:19:09;16.93;;;14.10;;
9968;SDS011;5025;48.890;9.278;2024-03-08T12:21:35;14.37;;;12.57;;
9968;SDS011;5025;48.890;9.278;2024-03-08T12:24:07;14.13;;;12.50;;
9968;SDS011;5025;48.890;9.278;2024-03-08T12:26:35;14.30;;;12.33;;
9968;SDS011;5025;48.890;9.278;2024-03-08T12:29:17;13.07;;;11.40;;
9968;SDS011;5025;48.890;9.278;2024-03-08T12:31:53;13.40;;;11.90;;
9968;SDS011;5025;48.890;9.278;2024-03-08T12:34:20;15.77;;;14.07;;
9968;SDS011;5025;48.890;9.278;2024-03-08T12:36:47;16.20;;;14.50;;
9968;SDS011;5025;48.890;9.278;2024-03-08T12:39:15;17.13;;;14.40;;
9968;SDS011;5025;48.890;9.278;2024-03-08T12:41:42;15.37;;;13.20;;
9968;SDS011;5025;48.890;9.278;2024-03-08T12:44:08;15.10;;;12.70;;
9968;SDS011;5025;48.890;9.278;2024-03-08T12:46:36;14.90;;;13.30;;
9968;SDS011;5025;48.890;9.278;2024-03-08T12:49:05;13.30;;;11.90;;
9968;SDS011;5025;48.890;9.278;2024-03-08T12:51:31;13.57;;;12.03;;
9968;SDS011;5025;48.890;9.278;2024-03-08T12:53:58;14.00;;;12.53;;
9968;SDS011;5025;48.890;9.278;2024-03-08T12:56:30;14.13;;;12.43;;
9968;SDS011;5025;48.890;9.278;2024-03-08T12:58:57;13.90;;;12.40;;
9968;SDS011;5025;48.890;9.278;2024-03-08T13:01:23;15.03;;;13.37;;
9968;SDS011;5025;48.890;9.278;2024-03-08T13:03:48;13.53;;;12.07;;
9968;SDS011;5025;48.890;9.278;2024-03-08T13:06:14;15.30;;;13.13;;
9968;SDS011;5025;48.890;9.278;2024-03-08T13:08:40;14.00;;;12.50;;
9968;SDS011;5025;48.890;9.278;2024-03-08T13:11:09;13.43;;;12.13;;
9968;SDS011;5025;48.890;9.278;2024-03-08T13:13:37;14.90;;;13.30;;
9968;SDS011;5025;48.890;9.278;2024-03-08T13:16:05;13.37;;;12.03;;
9968;SDS011;5025;48.890;9.278;2024-03-08T13:18:33;14.57;;;13.07;;
9968;SDS011;5025;48.890;9.278;2024-03-08T13:20:59;14.20;;;12.73;;
9968;SDS011;5025;48.890;9.278;2024-03-08T13:23:29;14.60;;;12.50;;
9968;SDS011;5025;48.890;9.278;2024-03-08T13:25:55;13.60;;;12.27;;
9968;SDS011;5025;48.890;9.278;2024-03-08T13:28:21;15.17;;;13.57;;
9968;SDS011;5025;48.890;9.278;2024-03-08T13:30:52;14.63;;;12.80;;
9968;SDS011;5025;48.890;9.278;2024-03-08T13:33:18;13.10;;;11.80;;
9968;SDS011;5025;48.890;9.278;2024-03-08T13:35:44;13.70;;;11.97;;
9968;SDS011;5025;48.890;9.278;2024-03-08T13:38:09;13.23;;;11.00;;
9968;SDS011;5025;48.890;9.278;2024-03-08T13:40:38;12.40;;;11.10;;
9968;SDS011;5025;48.890;9.278;2024-03-08T13:43:05;12.73;;;10.87;;
9968;SDS011;5025;48.890;9.278;2024-03-08T13:45:30;13.23;;;11.93;;
9968;SDS011;5025;48.890;9.278;2024-03-08T13:47:56;12.50;;;11.30;;
9968;SDS011;5025;48.890;9.278;2024-03-08T13:50:21;13.07;;;11.67;;
9968;SDS011;5025;48.890;9.278;2024-03-08T13:52:47;11.77;;;10.63;;
9968;SDS011;5025;48.890;9.278;2024-03-08T13:55:16;12.33;;;11.13;;
9968;SDS011;5025;48.890;9.278;2024-03-08T13:57:41;12.73;;;11.43;;
9968;SDS011;5025;48.890;9.278;2024-03-08T14:00:07;12.33;;;11.13;;
9968;SDS011;5025;48.890;9.278;2024-03-08T14:02:32;12.33;;;11.13;;
9968;SDS011;5025;48.890;9.278;2024-03-08T14:04:58;11.93;;;10.83;;
9968;SDS011;5025;48.890;9.278;2024-03-08T14:07:26;13.03;;;11.83;;
9968;SDS011;5025;48.890;9.278;2024-03-08T14:09:53;11.77;;;10.67;;
9968;SDS011;5025;48.890;9.278;2024-03-08T14:12:19;10.73;;;9.63;;
9968;SDS011;5025;48.890;9.278;2024-03-08T14:14:44;12.37;;;11.07;;
9968;SDS011;5025;48.890;9.278;2024-03-08T14:17:10;12.63;;;11.43;;
9968;SDS011;5025;48.890;9.278;2024-03-08T14:19:36;12.50;;;11.30;;
9968;SDS011;5025;48.890;9.278;2024-03-08T14:22:01;12.47;;;11.27;;
9968;SDS011;5025;48.890;9.278;2024-03-08T14:24:29;12.73;;;11.43;;
9968;SDS011;5025;48.890;9.278;2024-03-08T14:26:55;13.20;;;10.53;;
9968;SDS011;5025;48.890;9.278;2024-03-08T14:29:20;11.20;;;10.10;;
9968;SDS011;5025;48.890;9.278;2024-03-08T14:31:45;10.90;;;9.90;;
9968;SDS011;5025;48.890;9.278;2024-03-08T14:34:10;10.43;;;9.43;;
9968;SDS011;5025;48.890;9.278;2024-03-08T14:36:36;10.53;;;9.60;;
9968;SDS011;5025;48.890;9.278;2024-03-08T14:39:03;10.87;;;9.87;;
9968;SDS011;5025;48.890;9.278;2024-03-08T14:41:28;10.27;;;9.33;;
9968;SDS011;5025;48.890;9.278;2024-03-08T14:43:54;11.23;;;10.07;;
9968;SDS011;5025;48.890;9.278;2024-03-08T14:46:21;11.90;;;10.80;;
9968;SDS011;5025;48.890;9.278;2024-03-08T14:48:48;10.30;;;9.40;;
9968;SDS011;5025;48.890;9.278;2024-03-08T14:51:19;10.73;;;9.73;;